sensor_id;sensor_type;location;lat;lon;timestamp;temperature;humidity
32524;DHT22;18965;52.242;20.886;2023-02-28T00:00:24;-0.20;59.70
32524;DHT22;18965;52.242;20.886;2023-02-28T00:02:50;-0.30;60.40
32524;DHT22;18965;52.242;20.886;2023-02-28T00:05:19;-0.40;60.30
32524;DHT22;18965;52.242;20.886;2023-02-28T00:07:45;-0.30;60.10
32524;DHT22;18965;52.242;20.886;2023-02-28T00:10:15;-0.40;59.70
32524;DHT22;18965;52.242;20.886;2023-02-28T00:12:41;-0.40;60.20
32524;DHT22;18965;52.242;20.886;2023-02-28T00:15:09;-0.40;60.30
32524;DHT22;18965;52.242;20.886;2023-02-28T00:17:35;-0.40;60.40
32524;DHT22;18965;52.242;20.886;2023-02-28T00:20:01;-0.50;60.50
32524;DHT22;18965;52.242;20.886;2023-02-28T00:22:42;-0.60;60.10
32524;DHT22;18965;52.242;20.886;2023-02-28T00:25:09;-0.60;60.70
32524;DHT22;18965;52.242;20.886;2023-02-28T00:27:36;-0.60;60.80
32524;DHT22;18965;52.242;20.886;2023-02-28T00:30:02;-0.70;66.30
32524;DHT22;18965;52.242;20.886;2023-02-28T00:32:29;-0.70;60.70
32524;DHT22;18965;52.242;20.886;2023-02-28T00:34:55;-0.80;60.50
32524;DHT22;18965;52.242;20.886;2023-02-28T00:42:13;-0.90;63.20
32524;DHT22;18965;52.242;20.886;2023-02-28T00:44:38;-0.90;63.10
32524;DHT22;18965;52.242;20.886;2023-02-28T00:47:04;-0.90;61.20
32524;DHT22;18965;52.242;20.886;2023-02-28T00:49:30;-1.00;61.40
32524;DHT22;18965;52.242;20.886;2023-02-28T00:51:56;-1.00;61.50
32524;DHT22;18965;52.242;20.886;2023-02-28T00:54:22;-0.90;61.90
32524;DHT22;18965;52.242;20.886;2023-02-28T00:56:48;-1.00;62.20
32524;DHT22;18965;52.242;20.886;2023-02-28T00:59:16;-1.00;62.30
32524;DHT22;18965;52.242;20.886;2023-02-28T01:01:43;-1.00;62.30
32524;DHT22;18965;52.242;20.886;2023-02-28T01:04:09;-1.00;62.50
32524;DHT22;18965;52.242;20.886;2023-02-28T01:06:35;-1.00;62.60
32524;DHT22;18965;52.242;20.886;2023-02-28T01:09:02;-1.10;62.70
32524;DHT22;18965;52.242;20.886;2023-02-28T01:11:28;-1.10;62.80
32524;DHT22;18965;52.242;20.886;2023-02-28T01:13:54;-1.10;63.00
32524;DHT22;18965;52.242;20.886;2023-02-28T01:16:19;-1.00;62.80
32524;DHT22;18965;52.242;20.886;2023-02-28T01:18:45;-1.20;63.10
32524;DHT22;18965;52.242;20.886;2023-02-28T01:21:14;-1.20;62.80
32524;DHT22;18965;52.242;20.886;2023-02-28T01:23:41;-1.20;63.30
32524;DHT22;18965;52.242;20.886;2023-02-28T01:26:10;-1.20;63.40
32524;DHT22;18965;52.242;20.886;2023-02-28T01:28:36;-1.30;63.40
32524;DHT22;18965;52.242;20.886;2023-02-28T01:31:02;-1.30;63.00
32524;DHT22;18965;52.242;20.886;2023-02-28T01:36:11;-1.40;63.00
32524;DHT22;18965;52.242;20.886;2023-02-28T01:38:37;-1.40;63.80
32524;DHT22;18965;52.242;20.886;2023-02-28T01:41:04;-1.40;63.80
32524;DHT22;18965;52.242;20.886;2023-02-28T01:43:52;-1.40;63.90
32524;DHT22;18965;52.242;20.886;2023-02-28T01:46:18;-1.40;64.00
32524;DHT22;18965;52.242;20.886;2023-02-28T01:51:44;-1.40;64.20
32524;DHT22;18965;52.242;20.886;2023-02-28T01:54:15;-1.50;64.20
32524;DHT22;18965;52.242;20.886;2023-02-28T01:57:09;-1.50;64.30
32524;DHT22;18965;52.242;20.886;2023-02-28T01:59:45;-1.50;64.60
32524;DHT22;18965;52.242;20.886;2023-02-28T02:02:15;-1.50;64.60
32524;DHT22;18965;52.242;20.886;2023-02-28T02:05:10;-1.50;64.70
32524;DHT22;18965;52.242;20.886;2023-02-28T02:07:32;-1.50;64.80
32524;DHT22;18965;52.242;20.886;2023-02-28T02:13:00;-1.60;64.70
32524;DHT22;18965;52.242;20.886;2023-02-28T02:20:51;-1.60;64.90
32524;DHT22;18965;52.242;20.886;2023-02-28T02:26:28;-1.70;65.00
32524;DHT22;18965;52.242;20.886;2023-02-28T02:36:27;-1.80;65.30
32524;DHT22;18965;52.242;20.886;2023-02-28T02:41:23;-1.80;65.60
32524;DHT22;18965;52.242;20.886;2023-02-28T02:43:54;-1.90;65.60
32524;DHT22;18965;52.242;20.886;2023-02-28T02:46:29;-1.90;65.70
32524;DHT22;18965;52.242;20.886;2023-02-28T02:49:00;-1.90;65.70
32524;DHT22;18965;52.242;20.886;2023-02-28T02:51:28;-1.90;65.90
32524;DHT22;18965;52.242;20.886;2023-02-28T02:54:08;-1.90;65.90
32524;DHT22;18965;52.242;20.886;2023-02-28T02:56:35;-2.00;67.40
32524;DHT22;18965;52.242;20.886;2023-02-28T02:59:04;-2.10;66.50
32524;DHT22;18965;52.242;20.886;2023-02-28T03:01:31;-2.00;66.00
32524;DHT22;18965;52.242;20.886;2023-02-28T03:03:59;-1.90;66.70
32524;DHT22;18965;52.242;20.886;2023-02-28T03:06:26;-1.90;66.30
32524;DHT22;18965;52.242;20.886;2023-02-28T03:08:52;-1.90;66.50
32524;DHT22;18965;52.242;20.886;2023-02-28T03:11:18;-2.00;66.60
32524;DHT22;18965;52.242;20.886;2023-02-28T03:13:58;-2.00;66.50
32524;DHT22;18965;52.242;20.886;2023-02-28T03:16:46;-2.00;66.50
32524;DHT22;18965;52.242;20.886;2023-02-28T03:19:36;-2.00;66.50
32524;DHT22;18965;52.242;20.886;2023-02-28T03:27:48;-2.20;66.30
32524;DHT22;18965;52.242;20.886;2023-02-28T03:30:25;-2.00;66.20
32524;DHT22;18965;52.242;20.886;2023-02-28T03:33:13;-2.00;66.30
32524;DHT22;18965;52.242;20.886;2023-02-28T03:35:53;-2.10;66.30
32524;DHT22;18965;52.242;20.886;2023-02-28T03:41:10;-2.10;66.50
32524;DHT22;18965;52.242;20.886;2023-02-28T03:43:40;-2.10;66.50
32524;DHT22;18965;52.242;20.886;2023-02-28T03:46:10;-2.10;66.40
32524;DHT22;18965;52.242;20.886;2023-02-28T03:48:45;-2.10;66.60
32524;DHT22;18965;52.242;20.886;2023-02-28T03:51:15;-2.10;66.80
32524;DHT22;18965;52.242;20.886;2023-02-28T03:53:47;-2.20;66.80
32524;DHT22;18965;52.242;20.886;2023-02-28T03:56:24;-2.20;67.10
32524;DHT22;18965;52.242;20.886;2023-02-28T03:59:02;-2.20;66.70
32524;DHT22;18965;52.242;20.886;2023-02-28T04:01:39;-2.20;66.80
32524;DHT22;18965;52.242;20.886;2023-02-28T04:04:10;-2.20;66.90
32524;DHT22;18965;52.242;20.886;2023-02-28T04:06:36;-2.20;67.40
32524;DHT22;18965;52.242;20.886;2023-02-28T04:09:04;-2.30;66.90
32524;DHT22;18965;52.242;20.886;2023-02-28T04:11:34;-2.30;67.10
32524;DHT22;18965;52.242;20.886;2023-02-28T04:14:05;-2.30;67.10
32524;DHT22;18965;52.242;20.886;2023-02-28T04:16:32;-2.30;67.10
32524;DHT22;18965;52.242;20.886;2023-02-28T04:18:58;-2.20;67.20
32524;DHT22;18965;52.242;20.886;2023-02-28T04:21:59;-2.30;67.10
32524;DHT22;18965;52.242;20.886;2023-02-28T04:24:27;-2.30;67.20
32524;DHT22;18965;52.242;20.886;2023-02-28T04:26:55;-2.30;67.30
32524;DHT22;18965;52.242;20.886;2023-02-28T04:29:26;-2.40;67.10
32524;DHT22;18965;52.242;20.886;2023-02-28T04:34:19;-2.40;68.20
32524;DHT22;18965;52.242;20.886;2023-02-28T04:36:47;-2.20;67.50
32524;DHT22;18965;52.242;20.886;2023-02-28T04:41:46;-2.40;67.50
32524;DHT22;18965;52.242;20.886;2023-02-28T04:44:12;-2.40;67.50
32524;DHT22;18965;52.242;20.886;2023-02-28T04:46:38;-2.40;67.90
32524;DHT22;18965;52.242;20.886;2023-02-28T04:49:03;-2.50;68.00
32524;DHT22;18965;52.242;20.886;2023-02-28T04:53:55;-2.50;67.90
32524;DHT22;18965;52.242;20.886;2023-02-28T04:56:21;-2.40;67.70
32524;DHT22;18965;52.242;20.886;2023-02-28T05:03:48;-2.40;67.90
32524;DHT22;18965;52.242;20.886;2023-02-28T05:06:15;-2.50;67.90
32524;DHT22;18965;52.242;20.886;2023-02-28T05:08:41;-2.50;67.80
32524;DHT22;18965;52.242;20.886;2023-02-28T05:11:14;-2.50;67.90
32524;DHT22;18965;52.242;20.886;2023-02-28T05:13:40;-2.50;68.00
32524;DHT22;18965;52.242;20.886;2023-02-28T05:16:06;-2.50;68.00
32524;DHT22;18965;52.242;20.886;2023-02-28T05:20:59;-2.50;68.10
32524;DHT22;18965;52.242;20.886;2023-02-28T05:23:27;-2.50;68.20
32524;DHT22;18965;52.242;20.886;2023-02-28T05:25:53;-2.50;68.30
32524;DHT22;18965;52.242;20.886;2023-02-28T05:28:19;-2.50;68.80
32524;DHT22;18965;52.242;20.886;2023-02-28T05:30:46;-2.40;69.10
32524;DHT22;18965;52.242;20.886;2023-02-28T05:33:12;-2.40;68.70
32524;DHT22;18965;52.242;20.886;2023-02-28T05:35:39;-2.50;68.70
32524;DHT22;18965;52.242;20.886;2023-02-28T05:38:04;-2.40;69.20
32524;DHT22;18965;52.242;20.886;2023-02-28T05:40:30;-2.40;69.20
32524;DHT22;18965;52.242;20.886;2023-02-28T05:42:56;-2.40;69.20
32524;DHT22;18965;52.242;20.886;2023-02-28T05:45:21;-2.30;69.10
32524;DHT22;18965;52.242;20.886;2023-02-28T05:47:47;-2.30;69.20
32524;DHT22;18965;52.242;20.886;2023-02-28T05:50:13;-2.30;69.30
32524;DHT22;18965;52.242;20.886;2023-02-28T05:52:38;-2.30;69.40
32524;DHT22;18965;52.242;20.886;2023-02-28T05:55:04;-2.10;69.10
32524;DHT22;18965;52.242;20.886;2023-02-28T05:57:30;-2.20;69.60
32524;DHT22;18965;52.242;20.886;2023-02-28T05:59:56;-2.10;69.00
32524;DHT22;18965;52.242;20.886;2023-02-28T06:02:21;-2.00;69.10
32524;DHT22;18965;52.242;20.886;2023-02-28T06:07:13;-1.90;69.20
32524;DHT22;18965;52.242;20.886;2023-02-28T06:09:39;-1.80;69.20
32524;DHT22;18965;52.242;20.886;2023-02-28T06:12:06;-1.80;69.80
32524;DHT22;18965;52.242;20.886;2023-02-28T06:14:34;-1.70;69.50
32524;DHT22;18965;52.242;20.886;2023-02-28T06:17:00;-1.60;69.40
32524;DHT22;18965;52.242;20.886;2023-02-28T06:19:26;-1.50;69.50
32524;DHT22;18965;52.242;20.886;2023-02-28T06:21:53;-1.40;69.40
32524;DHT22;18965;52.242;20.886;2023-02-28T06:24:22;-1.50;69.90
32524;DHT22;18965;52.242;20.886;2023-02-28T06:26:48;-1.40;69.80
32524;DHT22;18965;52.242;20.886;2023-02-28T06:29:14;-1.30;70.00
32524;DHT22;18965;52.242;20.886;2023-02-28T06:31:44;-1.20;70.10
32524;DHT22;18965;52.242;20.886;2023-02-28T06:34:10;-1.10;70.00
32524;DHT22;18965;52.242;20.886;2023-02-28T06:36:41;-1.00;70.90
32524;DHT22;18965;52.242;20.886;2023-02-28T06:39:07;-1.00;70.00
32524;DHT22;18965;52.242;20.886;2023-02-28T06:41:35;-0.90;70.00
32524;DHT22;18965;52.242;20.886;2023-02-28T06:44:17;-0.80;70.00
32524;DHT22;18965;52.242;20.886;2023-02-28T06:46:43;-0.70;69.90
32524;DHT22;18965;52.242;20.886;2023-02-28T06:49:10;-0.50;69.90
32524;DHT22;18965;52.242;20.886;2023-02-28T06:51:37;-0.40;69.70
32524;DHT22;18965;52.242;20.886;2023-02-28T06:54:03;-0.30;69.50
32524;DHT22;18965;52.242;20.886;2023-02-28T06:56:29;-0.20;69.40
32524;DHT22;18965;52.242;20.886;2023-02-28T06:58:55;-0.10;69.30
32524;DHT22;18965;52.242;20.886;2023-02-28T07:01:22;0.00;69.20
32524;DHT22;18965;52.242;20.886;2023-02-28T07:03:49;0.10;68.90
32524;DHT22;18965;52.242;20.886;2023-02-28T07:06:23;0.20;68.50
32524;DHT22;18965;52.242;20.886;2023-02-28T07:08:50;0.40;67.80
32524;DHT22;18965;52.242;20.886;2023-02-28T07:11:17;0.40;68.30
32524;DHT22;18965;52.242;20.886;2023-02-28T07:13:43;0.60;68.10
32524;DHT22;18965;52.242;20.886;2023-02-28T07:16:10;0.70;67.00
32524;DHT22;18965;52.242;20.886;2023-02-28T07:18:37;0.80;66.20
32524;DHT22;18965;52.242;20.886;2023-02-28T07:21:04;0.80;66.80
32524;DHT22;18965;52.242;20.886;2023-02-28T07:23:31;0.90;66.80
32524;DHT22;18965;52.242;20.886;2023-02-28T07:25:56;1.00;66.50
32524;DHT22;18965;52.242;20.886;2023-02-28T07:28:22;1.10;66.60
32524;DHT22;18965;52.242;20.886;2023-02-28T07:30:48;1.20;66.20
32524;DHT22;18965;52.242;20.886;2023-02-28T07:33:14;1.20;66.20
32524;DHT22;18965;52.242;20.886;2023-02-28T07:35:40;1.40;65.20
32524;DHT22;18965;52.242;20.886;2023-02-28T07:38:06;1.30;65.50
32524;DHT22;18965;52.242;20.886;2023-02-28T07:40:34;1.40;65.40
32524;DHT22;18965;52.242;20.886;2023-02-28T07:43:00;1.50;65.20
32524;DHT22;18965;52.242;20.886;2023-02-28T07:45:27;1.60;64.80
32524;DHT22;18965;52.242;20.886;2023-02-28T07:47:54;1.60;65.50
32524;DHT22;18965;52.242;20.886;2023-02-28T07:50:20;1.60;65.40
32524;DHT22;18965;52.242;20.886;2023-02-28T07:52:46;1.70;64.10
32524;DHT22;18965;52.242;20.886;2023-02-28T07:55:12;1.80;63.90
32524;DHT22;18965;52.242;20.886;2023-02-28T07:57:40;1.90;64.10
32524;DHT22;18965;52.242;20.886;2023-02-28T08:00:08;1.90;63.60
32524;DHT22;18965;52.242;20.886;2023-02-28T08:02:35;1.90;64.20
32524;DHT22;18965;52.242;20.886;2023-02-28T08:05:00;2.00;63.80
32524;DHT22;18965;52.242;20.886;2023-02-28T08:07:27;2.00;63.70
32524;DHT22;18965;52.242;20.886;2023-02-28T08:09:52;2.10;64.00
32524;DHT22;18965;52.242;20.886;2023-02-28T08:12:18;2.10;63.80
32524;DHT22;18965;52.242;20.886;2023-02-28T08:14:44;2.20;62.50
32524;DHT22;18965;52.242;20.886;2023-02-28T08:17:10;2.20;62.40
32524;DHT22;18965;52.242;20.886;2023-02-28T08:19:36;2.20;61.90
32524;DHT22;18965;52.242;20.886;2023-02-28T08:22:02;2.30;62.50
32524;DHT22;18965;52.242;20.886;2023-02-28T08:26:54;2.50;62.40
32524;DHT22;18965;52.242;20.886;2023-02-28T08:29:20;2.30;63.20
32524;DHT22;18965;52.242;20.886;2023-02-28T08:34:14;2.50;62.10
32524;DHT22;18965;52.242;20.886;2023-02-28T08:36:40;2.50;61.90
32524;DHT22;18965;52.242;20.886;2023-02-28T08:39:06;2.70;71.90
32524;DHT22;18965;52.242;20.886;2023-02-28T08:41:32;2.70;71.90
32524;DHT22;18965;52.242;20.886;2023-02-28T08:43:58;2.90;62.60
32524;DHT22;18965;52.242;20.886;2023-02-28T08:46:24;2.80;62.20
32524;DHT22;18965;52.242;20.886;2023-02-28T08:48:54;2.80;61.10
32524;DHT22;18965;52.242;20.886;2023-02-28T08:51:20;2.90;65.60
32524;DHT22;18965;52.242;20.886;2023-02-28T08:53:56;2.90;61.60
32524;DHT22;18965;52.242;20.886;2023-02-28T08:56:23;3.00;60.50
32524;DHT22;18965;52.242;20.886;2023-02-28T08:58:50;3.00;61.30
32524;DHT22;18965;52.242;20.886;2023-02-28T09:03:43;3.10;60.30
32524;DHT22;18965;52.242;20.886;2023-02-28T09:06:10;3.10;59.60
32524;DHT22;18965;52.242;20.886;2023-02-28T09:08:36;3.10;60.20
32524;DHT22;18965;52.242;20.886;2023-02-28T09:11:03;3.10;60.40
32524;DHT22;18965;52.242;20.886;2023-02-28T09:13:29;3.20;60.50
32524;DHT22;18965;52.242;20.886;2023-02-28T09:15:58;3.20;59.80
32524;DHT22;18965;52.242;20.886;2023-02-28T09:18:24;3.20;59.40
32524;DHT22;18965;52.242;20.886;2023-02-28T09:20:50;3.40;61.70
32524;DHT22;18965;52.242;20.886;2023-02-28T09:23:16;3.30;60.10
32524;DHT22;18965;52.242;20.886;2023-02-28T09:25:50;3.40;62.20
32524;DHT22;18965;52.242;20.886;2023-02-28T09:28:16;3.20;60.50
32524;DHT22;18965;52.242;20.886;2023-02-28T09:30:45;3.20;59.60
32524;DHT22;18965;52.242;20.886;2023-02-28T09:33:11;3.30;59.80
32524;DHT22;18965;52.242;20.886;2023-02-28T09:42:58;3.60;58.70
32524;DHT22;18965;52.242;20.886;2023-02-28T09:50:52;3.80;58.80
32524;DHT22;18965;52.242;20.886;2023-02-28T09:56:36;3.90;61.10
32524;DHT22;18965;52.242;20.886;2023-02-28T10:02:00;3.80;58.20
32524;DHT22;18965;52.242;20.886;2023-02-28T10:14:53;4.00;57.70
32524;DHT22;18965;52.242;20.886;2023-02-28T10:17:36;4.00;57.60
32524;DHT22;18965;52.242;20.886;2023-02-28T10:20:12;4.00;57.30
32524;DHT22;18965;52.242;20.886;2023-02-28T10:25:26;3.90;59.90
32524;DHT22;18965;52.242;20.886;2023-02-28T10:28:12;3.50;63.60
32524;DHT22;18965;52.242;20.886;2023-02-28T10:30:50;4.00;64.00
32524;DHT22;18965;52.242;20.886;2023-02-28T10:35:53;4.60;58.60
32524;DHT22;18965;52.242;20.886;2023-02-28T10:38:31;3.90;57.30
32524;DHT22;18965;52.242;20.886;2023-02-28T10:41:12;3.90;67.80
32524;DHT22;18965;52.242;20.886;2023-02-28T10:43:39;4.20;66.40
32524;DHT22;18965;52.242;20.886;2023-02-28T10:46:14;3.80;67.00
32524;DHT22;18965;52.242;20.886;2023-02-28T10:49:06;3.00;68.40
32524;DHT22;18965;52.242;20.886;2023-02-28T10:51:39;4.00;69.80
32524;DHT22;18965;52.242;20.886;2023-02-28T10:54:05;4.10;57.50
32524;DHT22;18965;52.242;20.886;2023-02-28T10:56:39;4.20;66.60
32524;DHT22;18965;52.242;20.886;2023-02-28T11:01:43;4.20;57.80
32524;DHT22;18965;52.242;20.886;2023-02-28T11:06:44;4.10;67.80
32524;DHT22;18965;52.242;20.886;2023-02-28T11:09:24;3.70;60.10
32524;DHT22;18965;52.242;20.886;2023-02-28T11:11:52;4.30;59.70
32524;DHT22;18965;52.242;20.886;2023-02-28T11:14:24;3.90;71.10
32524;DHT22;18965;52.242;20.886;2023-02-28T11:16:51;4.50;57.30
32524;DHT22;18965;52.242;20.886;2023-02-28T11:19:26;3.90;64.50
32524;DHT22;18965;52.242;20.886;2023-02-28T11:21:59;4.40;57.30
32524;DHT22;18965;52.242;20.886;2023-02-28T11:24:36;4.40;63.50
32524;DHT22;18965;52.242;20.886;2023-02-28T11:27:05;4.50;57.10
32524;DHT22;18965;52.242;20.886;2023-02-28T11:29:32;4.50;57.40
32524;DHT22;18965;52.242;20.886;2023-02-28T11:34:27;4.50;57.10
32524;DHT22;18965;52.242;20.886;2023-02-28T11:36:55;4.50;56.80
32524;DHT22;18965;52.242;20.886;2023-02-28T11:39:23;4.70;65.50
32524;DHT22;18965;52.242;20.886;2023-02-28T11:42:07;4.60;60.80
32524;DHT22;18965;52.242;20.886;2023-02-28T11:53:22;4.60;57.10
32524;DHT22;18965;52.242;20.886;2023-02-28T11:55:50;4.50;57.00
32524;DHT22;18965;52.242;20.886;2023-02-28T12:01:38;4.00;56.70
32524;DHT22;18965;52.242;20.886;2023-02-28T12:04:14;4.50;57.30
32524;DHT22;18965;52.242;20.886;2023-02-28T12:09:46;4.50;66.20
32524;DHT22;18965;52.242;20.886;2023-02-28T12:17:56;4.80;57.40
32524;DHT22;18965;52.242;20.886;2023-02-28T12:28:47;5.20;58.50
32524;DHT22;18965;52.242;20.886;2023-02-28T12:31:24;4.60;59.10
32524;DHT22;18965;52.242;20.886;2023-02-28T12:34:05;4.70;60.50
32524;DHT22;18965;52.242;20.886;2023-02-28T12:36:34;4.80;56.30
32524;DHT22;18965;52.242;20.886;2023-02-28T12:39:07;5.10;56.70
32524;DHT22;18965;52.242;20.886;2023-02-28T12:44:16;4.70;56.10
32524;DHT22;18965;52.242;20.886;2023-02-28T12:46:48;4.70;56.40
32524;DHT22;18965;52.242;20.886;2023-02-28T12:49:23;4.70;57.60
32524;DHT22;18965;52.242;20.886;2023-02-28T12:51:52;4.80;57.00
32524;DHT22;18965;52.242;20.886;2023-02-28T12:57:08;4.90;56.80
32524;DHT22;18965;52.242;20.886;2023-02-28T12:59:52;4.90;56.40
32524;DHT22;18965;52.242;20.886;2023-02-28T13:05:26;4.90;56.90
32524;DHT22;18965;52.242;20.886;2023-02-28T13:10:46;4.90;56.50
32524;DHT22;18965;52.242;20.886;2023-02-28T13:13:23;4.90;56.30
32524;DHT22;18965;52.242;20.886;2023-02-28T13:16:05;4.90;56.50
32524;DHT22;18965;52.242;20.886;2023-02-28T13:18:38;4.90;56.30
32524;DHT22;18965;52.242;20.886;2023-02-28T13:21:21;4.90;56.40
32524;DHT22;18965;52.242;20.886;2023-02-28T13:29:00;5.10;56.60
32524;DHT22;18965;52.242;20.886;2023-02-28T13:31:27;4.90;56.30
32524;DHT22;18965;52.242;20.886;2023-02-28T13:36:31;4.90;56.50
32524;DHT22;18965;52.242;20.886;2023-02-28T13:41:46;5.00;57.20
32524;DHT22;18965;52.242;20.886;2023-02-28T14:00:21;4.90;56.90
32524;DHT22;18965;52.242;20.886;2023-02-28T14:05:19;4.90;56.60
32524;DHT22;18965;52.242;20.886;2023-02-28T14:08:37;5.00;56.60
32524;DHT22;18965;52.242;20.886;2023-02-28T14:10:45;5.10;56.70
32524;DHT22;18965;52.242;20.886;2023-02-28T14:13:37;4.90;56.60
32524;DHT22;18965;52.242;20.886;2023-02-28T14:16:10;4.90;56.60
32524;DHT22;18965;52.242;20.886;2023-02-28T14:18:41;4.70;56.60
32524;DHT22;18965;52.242;20.886;2023-02-28T14:21:24;4.90;56.60
32524;DHT22;18965;52.242;20.886;2023-02-28T14:30:48;5.70;57.40
32524;DHT22;18965;52.242;20.886;2023-02-28T14:38:30;4.80;56.90
32524;DHT22;18965;52.242;20.886;2023-02-28T14:41:00;4.80;57.10
32524;DHT22;18965;52.242;20.886;2023-02-28T14:43:28;4.80;57.00
32524;DHT22;18965;52.242;20.886;2023-02-28T14:46:00;4.80;56.90
32524;DHT22;18965;52.242;20.886;2023-02-28T14:48:26;4.80;57.00
32524;DHT22;18965;52.242;20.886;2023-02-28T14:50:57;4.70;57.20
32524;DHT22;18965;52.242;20.886;2023-02-28T14:53:27;4.70;57.10
32524;DHT22;18965;52.242;20.886;2023-02-28T14:55:54;5.10;57.40
32524;DHT22;18965;52.242;20.886;2023-02-28T14:58:33;4.70;57.10
32524;DHT22;18965;52.242;20.886;2023-02-28T15:01:01;4.60;75.80
32524;DHT22;18965;52.242;20.886;2023-02-28T15:26:55;4.50;56.70
32524;DHT22;18965;52.242;20.886;2023-02-28T15:52:29;4.00;58.70
32524;DHT22;18965;52.242;20.886;2023-02-28T16:02:22;3.90;58.10
32524;DHT22;18965;52.242;20.886;2023-02-28T16:47:01;2.80;59.90
32524;DHT22;18965;52.242;20.886;2023-02-28T16:56:47;2.50;60.30
32524;DHT22;18965;52.242;20.886;2023-02-28T16:59:17;2.50;60.50
32524;DHT22;18965;52.242;20.886;2023-02-28T17:04:11;2.40;60.60
32524;DHT22;18965;52.242;20.886;2023-02-28T17:16:30;2.10;61.00
32524;DHT22;18965;52.242;20.886;2023-02-28T18:00:29;1.30;62.90
32524;DHT22;18965;52.242;20.886;2023-02-28T18:10:19;1.10;63.20
32524;DHT22;18965;52.242;20.886;2023-02-28T18:12:46;1.10;63.50
32524;DHT22;18965;52.242;20.886;2023-02-28T18:20:05;1.10;64.00
32524;DHT22;18965;52.242;20.886;2023-02-28T18:54:14;0.70;65.90
32524;DHT22;18965;52.242;20.886;2023-02-28T19:04:00;0.60;66.00
32524;DHT22;18965;52.242;20.886;2023-02-28T19:08:53;0.50;66.20
32524;DHT22;18965;52.242;20.886;2023-02-28T19:11:19;0.50;66.40
32524;DHT22;18965;52.242;20.886;2023-02-28T19:16:13;0.50;66.50
32524;DHT22;18965;52.242;20.886;2023-02-28T19:21:07;0.50;66.60
32524;DHT22;18965;52.242;20.886;2023-02-28T19:28:29;0.50;77.50
32524;DHT22;18965;52.242;20.886;2023-02-28T19:33:21;0.40;76.80
32524;DHT22;18965;52.242;20.886;2023-02-28T19:35:47;0.30;78.00
32524;DHT22;18965;52.242;20.886;2023-02-28T19:45:34;0.20;66.60
32524;DHT22;18965;52.242;20.886;2023-02-28T20:00:12;0.10;77.50
32524;DHT22;18965;52.242;20.886;2023-02-28T20:02:39;0.10;67.30
32524;DHT22;18965;52.242;20.886;2023-02-28T20:05:06;0.20;77.30
32524;DHT22;18965;52.242;20.886;2023-02-28T20:29:28;-0.10;70.70
32524;DHT22;18965;52.242;20.886;2023-02-28T20:36:48;-0.20;68.50
32524;DHT22;18965;52.242;20.886;2023-02-28T20:53:51;-0.30;75.30
32524;DHT22;18965;52.242;20.886;2023-02-28T20:56:19;-0.30;75.80
32524;DHT22;18965;52.242;20.886;2023-02-28T20:58:46;-0.30;69.10
32524;DHT22;18965;52.242;20.886;2023-02-28T21:01:15;-0.50;71.50
32524;DHT22;18965;52.242;20.886;2023-02-28T21:06:09;0.50;69.80
32524;DHT22;18965;52.242;20.886;2023-02-28T21:08:35;-0.40;69.10
32524;DHT22;18965;52.242;20.886;2023-02-28T21:11:05;-0.30;75.60
32524;DHT22;18965;52.242;20.886;2023-02-28T21:13:31;-0.40;74.80
32524;DHT22;18965;52.242;20.886;2023-02-28T21:42:43;-0.60;70.80
32524;DHT22;18965;52.242;20.886;2023-02-28T21:47:35;-0.80;70.00
32524;DHT22;18965;52.242;20.886;2023-02-28T21:52:27;-0.80;70.90
32524;DHT22;18965;52.242;20.886;2023-02-28T21:54:52;-0.90;73.60
32524;DHT22;18965;52.242;20.886;2023-02-28T21:59:45;-0.90;74.10
32524;DHT22;18965;52.242;20.886;2023-02-28T22:04:38;-0.60;75.60
32524;DHT22;18965;52.242;20.886;2023-02-28T22:09:30;-0.80;74.00
32524;DHT22;18965;52.242;20.886;2023-02-28T22:11:56;0.20;74.10
32524;DHT22;18965;52.242;20.886;2023-02-28T22:14:23;-0.90;73.70
32524;DHT22;18965;52.242;20.886;2023-02-28T22:16:49;-1.00;74.30
32524;DHT22;18965;52.242;20.886;2023-02-28T22:21:41;-0.60;72.70
32524;DHT22;18965;52.242;20.886;2023-02-28T22:24:08;0.00;74.30
32524;DHT22;18965;52.242;20.886;2023-02-28T22:26:34;-0.90;74.60
32524;DHT22;18965;52.242;20.886;2023-02-28T22:29:00;-0.80;70.70
32524;DHT22;18965;52.242;20.886;2023-02-28T22:31:30;-0.80;70.70
32524;DHT22;18965;52.242;20.886;2023-02-28T22:33:59;-0.80;72.00
32524;DHT22;18965;52.242;20.886;2023-02-28T22:36:27;-0.80;70.70
32524;DHT22;18965;52.242;20.886;2023-02-28T22:41:22;-0.80;70.90
32524;DHT22;18965;52.242;20.886;2023-02-28T22:43:53;-1.10;78.00
32524;DHT22;18965;52.242;20.886;2023-02-28T22:48:45;-0.70;71.80
32524;DHT22;18965;52.242;20.886;2023-02-28T22:51:16;-0.70;72.00
32524;DHT22;18965;52.242;20.886;2023-02-28T22:53:43;-1.00;71.50
32524;DHT22;18965;52.242;20.886;2023-02-28T22:56:10;-0.80;71.40
32524;DHT22;18965;52.242;20.886;2023-02-28T22:58:36;-0.90;72.20
32524;DHT22;18965;52.242;20.886;2023-02-28T23:01:10;-0.80;71.50
32524;DHT22;18965;52.242;20.886;2023-02-28T23:03:36;-0.80;71.60
32524;DHT22;18965;52.242;20.886;2023-02-28T23:06:19;-0.80;72.20
32524;DHT22;18965;52.242;20.886;2023-02-28T23:08:46;-0.90;72.10
32524;DHT22;18965;52.242;20.886;2023-02-28T23:11:27;-0.80;71.90
32524;DHT22;18965;52.242;20.886;2023-02-28T23:13:53;-0.80;72.00
32524;DHT22;18965;52.242;20.886;2023-02-28T23:16:33;-0.80;71.90
32524;DHT22;18965;52.242;20.886;2023-02-28T23:19:00;-0.80;71.90
32524;DHT22;18965;52.242;20.886;2023-02-28T23:21:27;-0.70;72.00
32524;DHT22;18965;52.242;20.886;2023-02-28T23:23:53;-0.70;72.10
32524;DHT22;18965;52.242;20.886;2023-02-28T23:26:19;-0.70;72.00
32524;DHT22;18965;52.242;20.886;2023-02-28T23:28:45;-0.80;71.90
32524;DHT22;18965;52.242;20.886;2023-02-28T23:31:10;-0.70;72.50
32524;DHT22;18965;52.242;20.886;2023-02-28T23:33:36;-0.70;72.50
32524;DHT22;18965;52.242;20.886;2023-02-28T23:36:13;-0.70;72.60
32524;DHT22;18965;52.242;20.886;2023-02-28T23:38:41;-0.70;72.70
32524;DHT22;18965;52.242;20.886;2023-02-28T23:41:09;-0.70;72.80
32524;DHT22;18965;52.242;20.886;2023-02-28T23:43:35;-0.70;72.30
32524;DHT22;18965;52.242;20.886;2023-02-28T23:46:01;-0.70;72.30
32524;DHT22;18965;52.242;20.886;2023-02-28T23:50:54;-0.70;72.60
32524;DHT22;18965;52.242;20.886;2023-02-28T23:53:23;-0.70;72.70
32524;DHT22;18965;52.242;20.886;2023-02-28T23:55:48;-0.70;73.10
32524;DHT22;18965;52.242;20.886;2023-02-28T23:58:15;-0.60;73.20
